createdAt,value
2022-12-24T00:01:35.932Z,11.90
2022-12-24T00:04:04.078Z,11.90
2022-12-24T00:06:33.674Z,11.90
2022-12-24T00:09:01.780Z,11.90
2022-12-24T00:11:30.195Z,11.90
2022-12-24T00:13:58.394Z,12.00
2022-12-24T00:16:26.785Z,12.00
2022-12-24T00:18:55.236Z,12.00
2022-12-24T00:21:23.294Z,12.00
2022-12-24T00:23:53.239Z,12.00
2022-12-24T00:26:21.390Z,11.90
2022-12-24T00:28:49.684Z,12.00
2022-12-24T00:31:19.797Z,12.00
2022-12-24T00:33:48.888Z,12.00
2022-12-24T00:36:17.853Z,12.00
2022-12-24T00:38:46.611Z,11.90
2022-12-24T00:41:26.186Z,11.90
2022-12-24T00:43:56.051Z,11.90
2022-12-24T00:46:24.801Z,11.90
2022-12-24T00:48:53.702Z,11.80
2022-12-24T00:51:22.845Z,11.80
2022-12-24T00:53:51.882Z,11.80
2022-12-24T00:56:21.717Z,11.80
2022-12-24T00:58:50.006Z,11.80
2022-12-24T01:01:19.254Z,11.80
2022-12-24T01:03:47.904Z,11.80
2022-12-24T01:06:17.194Z,11.80
2022-12-24T01:08:45.416Z,11.80
2022-12-24T01:11:14.459Z,11.80
2022-12-24T01:13:44.069Z,11.70
2022-12-24T01:16:16.829Z,11.70
2022-12-24T01:18:45.101Z,11.60
2022-12-24T01:21:13.443Z,11.50
2022-12-24T01:23:41.606Z,11.60
2022-12-24T01:26:12.178Z,11.60
2022-12-24T01:28:40.893Z,11.60
2022-12-24T01:31:14.631Z,11.60
2022-12-24T01:33:43.688Z,11.60
2022-12-24T01:36:12.337Z,11.50
2022-12-24T01:38:41.117Z,11.50
2022-12-24T01:41:32.503Z,11.50
2022-12-24T01:44:17.186Z,11.50
2022-12-24T01:46:47.817Z,11.40
2022-12-24T01:49:18.043Z,11.40
2022-12-24T01:51:48.569Z,11.40
2022-12-24T01:54:28.526Z,11.40
2022-12-24T01:57:02.468Z,11.40
2022-12-24T01:59:31.179Z,11.40
2022-12-24T02:02:03.127Z,11.40
2022-12-24T02:04:37.168Z,11.40
2022-12-24T02:07:05.314Z,11.40
2022-12-24T02:09:34.915Z,11.40
2022-12-24T02:12:03.679Z,11.40
2022-12-24T02:14:33.047Z,11.40
2022-12-24T02:17:12.035Z,11.50
2022-12-24T02:20:27.265Z,11.50
2022-12-24T02:23:13.386Z,11.60
2022-12-24T02:26:00.741Z,11.50
2022-12-24T02:28:44.958Z,11.50
2022-12-24T02:31:21.030Z,11.50
2022-12-24T02:33:56.117Z,11.40
2022-12-24T02:36:29.357Z,11.40
2022-12-24T02:39:02.447Z,11.40
2022-12-24T02:41:54.483Z,11.30
2022-12-24T02:44:26.942Z,11.30
2022-12-24T02:46:56.852Z,11.30
2022-12-24T02:49:25.062Z,11.30
2022-12-24T02:51:53.103Z,11.20
2022-12-24T02:54:21.051Z,11.20
2022-12-24T02:57:04.150Z,11.10
2022-12-24T02:59:56.154Z,11.10
2022-12-24T03:02:36.022Z,11.00
2022-12-24T03:05:13.250Z,11.00
2022-12-24T03:07:49.722Z,11.00
2022-12-24T03:10:24.916Z,11.00
2022-12-24T03:12:56.929Z,11.00
2022-12-24T03:15:27.394Z,11.00
2022-12-24T03:18:01.234Z,11.00
2022-12-24T03:20:34.717Z,11.00
2022-12-24T03:23:03.494Z,11.00
2022-12-24T03:25:33.593Z,11.10
2022-12-24T03:28:04.119Z,11.10
2022-12-24T03:30:32.382Z,11.20
2022-12-24T03:33:02.085Z,11.20
2022-12-24T03:35:30.356Z,11.20
2022-12-24T03:38:01.669Z,11.20
2022-12-24T03:40:30.189Z,11.20
2022-12-24T03:42:58.713Z,11.20
2022-12-24T03:45:28.228Z,11.20
2022-12-24T03:47:58.153Z,11.30
2022-12-24T03:50:27.756Z,11.30
2022-12-24T03:52:56.124Z,11.30
2022-12-24T03:55:24.485Z,11.30
2022-12-24T03:57:52.631Z,11.40
2022-12-24T04:00:21.652Z,11.40
2022-12-24T04:02:49.794Z,11.40
2022-12-24T04:05:20.981Z,11.40
2022-12-24T04:07:50.320Z,11.40
2022-12-24T04:10:18.433Z,11.30
2022-12-24T04:12:46.647Z,11.30
2022-12-24T04:15:14.585Z,11.40
2022-12-24T04:17:42.679Z,11.40
2022-12-24T04:20:11.796Z,11.40
2022-12-24T04:22:39.734Z,11.50
2022-12-24T04:25:10.306Z,11.50
2022-12-24T04:27:38.287Z,11.40
2022-12-24T04:30:09.236Z,11.40
2022-12-24T04:32:37.464Z,11.40
2022-12-24T04:35:06.576Z,11.40
2022-12-24T04:37:35.142Z,11.40
2022-12-24T04:40:03.240Z,11.50
2022-12-24T04:42:32.560Z,11.40
2022-12-24T04:45:00.558Z,11.40
2022-12-24T04:47:28.648Z,11.30
2022-12-24T04:49:56.639Z,11.30
2022-12-24T04:52:24.729Z,11.30
2022-12-24T04:54:52.854Z,11.20
2022-12-24T04:57:21.019Z,11.30
2022-12-24T04:59:50.644Z,11.20
2022-12-24T05:02:19.127Z,11.20
2022-12-24T05:04:47.364Z,11.20
2022-12-24T05:07:15.546Z,11.10
2022-12-24T05:09:43.625Z,11.00
2022-12-24T05:12:11.865Z,11.00
2022-12-24T05:14:40.843Z,11.10
2022-12-24T05:17:10.476Z,11.00
2022-12-24T05:19:38.648Z,11.00
2022-12-24T05:22:24.167Z,10.90
2022-12-24T05:25:09.605Z,10.90
2022-12-24T05:27:38.008Z,10.80
2022-12-24T05:30:07.543Z,10.80
2022-12-24T05:32:37.320Z,10.70
2022-12-24T05:35:06.199Z,10.70
2022-12-24T05:37:34.410Z,10.70
2022-12-24T05:40:02.860Z,10.70
2022-12-24T05:42:31.138Z,10.80
2022-12-24T05:44:59.335Z,10.80
2022-12-24T05:47:27.771Z,10.80
2022-12-24T05:49:57.358Z,10.80
2022-12-24T05:52:25.649Z,10.70
2022-12-24T05:54:53.762Z,10.70
2022-12-24T05:57:22.080Z,10.70
2022-12-24T05:59:50.175Z,10.70
2022-12-24T06:02:18.687Z,10.70
2022-12-24T06:04:47.040Z,10.60
2022-12-24T06:07:16.613Z,10.60
2022-12-24T06:09:44.754Z,10.50
2022-12-24T06:12:12.925Z,10.50
2022-12-24T06:14:41.207Z,10.50
2022-12-24T06:17:09.400Z,10.40
2022-12-24T06:19:37.650Z,10.40
2022-12-24T06:22:05.771Z,10.30
2022-12-24T06:24:35.302Z,10.30
2022-12-24T06:27:03.480Z,10.30
2022-12-24T06:29:31.641Z,10.30
2022-12-24T06:31:59.839Z,10.30
2022-12-24T06:34:28.213Z,10.30
2022-12-24T06:36:56.298Z,10.40
2022-12-24T06:39:26.474Z,10.40
2022-12-24T06:41:55.936Z,10.50
2022-12-24T06:44:24.082Z,10.40
2022-12-24T06:46:52.307Z,10.40
2022-12-24T06:49:20.404Z,10.40
2022-12-24T06:51:48.447Z,10.50
2022-12-24T06:54:18.340Z,10.50
2022-12-24T06:56:46.643Z,10.50
2022-12-24T06:59:16.207Z,10.60
2022-12-24T07:01:44.376Z,10.50
2022-12-24T07:04:19.719Z,10.60
2022-12-24T07:06:49.253Z,10.60
2022-12-24T07:09:17.317Z,10.70
2022-12-24T07:11:45.486Z,10.70
2022-12-24T07:14:15.070Z,10.70
2022-12-24T07:16:43.261Z,10.80
2022-12-24T07:19:11.400Z,10.80
2022-12-24T07:21:39.448Z,10.80
2022-12-24T07:24:08.108Z,10.90
2022-12-24T07:26:36.219Z,10.90
2022-12-24T07:29:04.350Z,10.90
2022-12-24T07:31:34.152Z,10.90
2022-12-24T07:34:02.226Z,11.00
2022-12-24T07:36:31.216Z,11.00
2022-12-24T07:39:00.217Z,11.00
2022-12-24T07:41:28.172Z,10.90
2022-12-24T07:43:56.074Z,10.90
2022-12-24T07:46:23.917Z,10.90
2022-12-24T07:48:53.482Z,10.90
2022-12-24T07:51:21.778Z,10.90
2022-12-24T07:53:49.946Z,11.00
2022-12-24T07:56:18.380Z,11.00
2022-12-24T07:58:46.368Z,11.00
2022-12-24T08:01:14.399Z,11.00
2022-12-24T08:03:42.579Z,11.00
2022-12-24T08:06:12.735Z,11.10
2022-12-24T08:08:40.666Z,11.10
2022-12-24T08:11:08.788Z,11.10
2022-12-24T08:13:36.723Z,11.10
2022-12-24T08:16:19.381Z,11.20
2022-12-24T08:18:47.442Z,11.20
2022-12-24T08:21:16.736Z,11.20
2022-12-24T08:23:48.080Z,11.20
2022-12-24T08:26:19.286Z,11.20
2022-12-24T08:28:47.345Z,11.20
2022-12-24T08:31:15.865Z,11.30
2022-12-24T08:33:43.757Z,11.40
2022-12-24T08:36:11.664Z,11.40
2022-12-24T08:38:42.403Z,11.50
2022-12-24T08:41:12.220Z,11.50
2022-12-24T08:43:40.179Z,11.50
2022-12-24T08:46:08.422Z,11.50
2022-12-24T08:48:40.537Z,11.50
2022-12-24T08:51:11.748Z,11.50
2022-12-24T08:53:41.299Z,11.50
2022-12-24T08:56:13.656Z,11.50
2022-12-24T08:58:41.905Z,11.50
2022-12-24T09:01:14.563Z,11.60
2022-12-24T09:03:43.147Z,11.60
2022-12-24T09:06:12.713Z,11.60
2022-12-24T09:08:41.951Z,11.60
2022-12-24T09:11:13.354Z,11.70
2022-12-24T09:13:43.366Z,11.80
2022-12-24T09:16:13.101Z,11.80
2022-12-24T09:18:41.447Z,11.90
2022-12-24T09:21:21.662Z,12.00
2022-12-24T09:23:51.074Z,12.00
2022-12-24T09:26:21.880Z,12.00
2022-12-24T09:28:50.172Z,12.10
2022-12-24T09:31:18.203Z,12.10
2022-12-24T09:33:49.310Z,12.20
2022-12-24T09:36:18.091Z,12.30
2022-12-24T09:38:46.301Z,12.40
2022-12-24T09:41:21.921Z,12.40
2022-12-24T09:43:56.906Z,12.50
2022-12-24T09:46:31.535Z,12.40
2022-12-24T09:49:05.749Z,12.40
2022-12-24T09:51:38.022Z,12.40
2022-12-24T09:54:19.507Z,12.50
2022-12-24T09:56:52.339Z,12.50
2022-12-24T09:59:26.011Z,12.60
2022-12-24T10:01:58.605Z,12.60
2022-12-24T10:04:33.812Z,12.70
2022-12-24T10:07:11.501Z,12.80
2022-12-24T10:09:50.462Z,12.80
2022-12-24T10:12:32.357Z,12.80
2022-12-24T10:15:09.806Z,12.80
2022-12-24T10:17:49.374Z,12.90
2022-12-24T10:20:30.510Z,12.80
2022-12-24T10:23:02.873Z,12.90
2022-12-24T10:25:46.593Z,12.90
2022-12-24T10:28:19.784Z,12.90
2022-12-24T10:30:53.476Z,12.80
2022-12-24T10:33:28.898Z,12.90
2022-12-24T10:35:59.751Z,13.00
2022-12-24T10:38:28.096Z,13.00
2022-12-24T10:40:57.693Z,13.10
2022-12-24T10:43:29.846Z,13.20
2022-12-24T10:46:00.529Z,13.20
2022-12-24T10:48:31.553Z,13.30
2022-12-24T10:51:04.562Z,13.30
2022-12-24T10:53:42.030Z,13.30
2022-12-24T10:56:13.965Z,13.30
2022-12-24T10:58:50.509Z,13.30
2022-12-24T11:01:19.347Z,13.30
2022-12-24T11:04:04.375Z,13.30
2022-12-24T11:06:32.436Z,13.20
2022-12-24T11:09:21.498Z,13.30
2022-12-24T11:11:50.371Z,13.30
2022-12-24T11:14:23.587Z,13.50
2022-12-24T11:16:54.367Z,13.90
2022-12-24T11:19:31.618Z,14.20
2022-12-24T11:22:02.444Z,14.20
2022-12-24T11:24:35.801Z,14.10
2022-12-24T11:27:30.415Z,13.90
2022-12-24T11:30:23.821Z,13.70
2022-12-24T11:33:13.115Z,13.60
2022-12-24T11:35:47.686Z,13.50
2022-12-24T11:38:22.571Z,13.50
2022-12-24T11:40:57.861Z,13.50
2022-12-24T11:43:44.161Z,13.50
2022-12-24T11:46:25.990Z,13.50
2022-12-24T11:49:08.669Z,13.50
2022-12-24T11:51:37.480Z,13.50
2022-12-24T11:54:13.902Z,13.60
2022-12-24T11:56:48.844Z,14.00
2022-12-24T11:59:25.210Z,14.60
2022-12-24T12:01:59.819Z,15.30
2022-12-24T12:04:31.779Z,15.50
2022-12-24T12:07:02.648Z,15.80
2022-12-24T12:09:34.463Z,16.10
2022-12-24T12:12:08.213Z,16.60
2022-12-24T12:14:42.804Z,17.00
2022-12-24T12:17:26.387Z,17.10
2022-12-24T12:19:58.874Z,16.60
2022-12-24T12:22:30.597Z,16.60
2022-12-24T12:25:03.765Z,17.10
2022-12-24T12:27:40.774Z,16.70
2022-12-24T12:30:17.786Z,16.80
2022-12-24T12:32:53.356Z,17.30
2022-12-24T12:35:25.957Z,17.20
2022-12-24T12:37:59.658Z,17.00
2022-12-24T12:40:46.714Z,16.80
2022-12-24T12:43:29.484Z,16.10
2022-12-24T12:46:04.208Z,15.40
2022-12-24T12:48:50.612Z,15.10
2022-12-24T12:51:32.359Z,14.70
2022-12-24T12:54:21.170Z,14.40
2022-12-24T12:56:52.469Z,14.30
2022-12-24T12:59:24.718Z,14.20
2022-12-24T13:02:05.999Z,14.00
2022-12-24T13:05:15.281Z,13.90
2022-12-24T13:08:13.584Z,13.80
2022-12-24T13:11:01.924Z,13.60
2022-12-24T13:13:55.029Z,13.50
2022-12-24T13:16:56.492Z,13.40
2022-12-24T13:19:41.304Z,13.30
2022-12-24T13:22:17.700Z,13.20
2022-12-24T13:24:52.952Z,13.20
2022-12-24T13:27:25.419Z,13.10
2022-12-24T13:29:54.425Z,13.10
2022-12-24T13:32:56.015Z,13.00
2022-12-24T13:35:38.879Z,12.90
2022-12-24T13:38:45.947Z,12.80
2022-12-24T13:41:59.528Z,12.80
2022-12-24T13:44:35.108Z,12.70
2022-12-24T13:47:18.358Z,12.70
2022-12-24T13:49:50.313Z,12.70
2022-12-24T13:52:28.430Z,12.60
2022-12-24T13:55:17.949Z,12.60
2022-12-24T13:57:54.287Z,12.60
2022-12-24T14:00:39.054Z,12.50
2022-12-24T14:03:19.974Z,12.50
2022-12-24T14:05:52.041Z,12.50
2022-12-24T14:08:31.215Z,12.40
2022-12-24T14:11:05.117Z,12.40
2022-12-24T14:13:56.585Z,12.30
2022-12-24T14:16:32.616Z,12.30
2022-12-24T14:19:02.635Z,12.30
2022-12-24T14:23:50.934Z,12.20
2022-12-24T14:25:05.871Z,12.20
2022-12-24T14:28:04.535Z,12.10
2022-12-24T14:33:47.728Z,12.10
2022-12-24T14:36:21.471Z,12.20
2022-12-24T14:38:49.857Z,12.20
2022-12-24T14:41:31.246Z,12.20
2022-12-24T14:44:09.305Z,12.20
2022-12-24T14:46:48.186Z,12.20
2022-12-24T14:49:29.245Z,12.20
2022-12-24T14:52:18.346Z,12.10
2022-12-24T14:54:55.694Z,12.10
2022-12-24T14:57:26.551Z,12.10
2022-12-24T14:59:58.993Z,12.10
2022-12-24T15:02:31.289Z,12.10
2022-12-24T15:05:10.261Z,12.00
2022-12-24T15:07:47.133Z,12.00
2022-12-24T15:10:30.350Z,12.00
2022-12-24T15:13:02.710Z,12.00
2022-12-24T15:15:31.104Z,11.90
2022-12-24T15:18:00.034Z,12.00
2022-12-24T15:20:31.377Z,11.90
2022-12-24T15:23:00.119Z,11.90
2022-12-24T15:25:29.866Z,11.90
2022-12-24T15:27:58.334Z,11.90
2022-12-24T15:30:29.467Z,11.90
2022-12-24T15:32:59.074Z,11.80
2022-12-24T15:35:54.301Z,11.90
2022-12-24T15:38:33.945Z,11.80
2022-12-24T15:41:03.624Z,11.80
2022-12-24T15:43:32.669Z,11.80
2022-12-24T15:46:01.927Z,11.80
2022-12-24T15:48:32.738Z,11.80
2022-12-24T15:51:06.386Z,11.80
2022-12-24T15:53:39.491Z,11.80
2022-12-24T15:56:10.565Z,11.70
2022-12-24T15:58:45.333Z,11.60
2022-12-24T16:01:30.221Z,11.60
2022-12-24T16:04:00.297Z,11.50
2022-12-24T16:06:49.810Z,11.50
2022-12-24T16:09:43.462Z,11.40
2022-12-24T16:12:19.860Z,11.40
2022-12-24T16:14:52.858Z,11.30
2022-12-24T16:17:27.514Z,11.30
2022-12-24T16:19:58.311Z,11.30
2022-12-24T16:22:35.212Z,11.30
2022-12-24T16:25:22.946Z,11.30
2022-12-24T16:28:03.576Z,11.30
2022-12-24T16:30:35.262Z,11.20
2022-12-24T16:33:03.321Z,11.20
2022-12-24T16:35:36.616Z,11.20
2022-12-24T16:38:06.825Z,11.20
2022-12-24T16:40:34.740Z,11.20
2022-12-24T16:43:20.254Z,11.10
2022-12-24T16:45:48.861Z,11.00
2022-12-24T16:48:23.089Z,11.00
2022-12-24T16:50:51.809Z,10.90
2022-12-24T16:53:22.741Z,10.90
2022-12-24T16:55:51.873Z,10.90
2022-12-24T16:58:20.951Z,10.90
2022-12-24T17:00:54.047Z,10.90
2022-12-24T17:03:22.119Z,10.80
2022-12-24T17:05:50.161Z,10.80
2022-12-24T17:08:18.235Z,10.80
2022-12-24T17:10:54.957Z,10.80
2022-12-24T17:13:26.924Z,10.80
2022-12-24T17:15:58.053Z,10.80
2022-12-24T17:18:26.085Z,10.80
2022-12-24T17:21:00.840Z,10.70
2022-12-24T17:23:29.499Z,10.70
2022-12-24T17:25:58.845Z,10.70
2022-12-24T17:28:29.833Z,10.70
2022-12-24T17:31:00.815Z,10.70
2022-12-24T17:33:28.789Z,10.70
2022-12-24T17:35:56.631Z,10.60
2022-12-24T17:38:26.955Z,10.60
2022-12-24T17:41:02.061Z,10.60
2022-12-24T17:43:30.734Z,10.50
2022-12-24T17:45:58.646Z,10.50
2022-12-24T17:48:26.894Z,10.50
2022-12-24T17:50:57.560Z,10.50
2022-12-24T17:53:28.564Z,10.50
2022-12-24T17:55:58.079Z,10.50
2022-12-24T17:58:27.423Z,10.40
2022-12-24T18:00:56.255Z,10.50
2022-12-24T18:03:27.531Z,10.50
2022-12-24T18:05:55.458Z,10.40
2022-12-24T18:08:29.372Z,10.40
2022-12-24T18:10:57.252Z,10.40
2022-12-24T18:13:25.317Z,10.30
2022-12-24T18:15:54.675Z,10.30
2022-12-24T18:18:22.837Z,10.30
2022-12-24T18:20:50.871Z,10.30
2022-12-24T18:23:21.401Z,10.30
2022-12-24T18:25:49.243Z,10.30
2022-12-24T18:28:17.226Z,10.30
2022-12-24T18:30:45.350Z,10.30
2022-12-24T18:33:14.721Z,10.30
2022-12-24T18:35:45.513Z,10.30
2022-12-24T18:38:13.754Z,10.30
2022-12-24T18:40:41.941Z,10.30
2022-12-24T18:43:09.945Z,10.30
2022-12-24T18:45:41.830Z,10.30
2022-12-24T18:48:14.634Z,10.30
2022-12-24T18:50:42.713Z,10.20
2022-12-24T18:53:11.480Z,10.20
2022-12-24T18:55:42.108Z,10.30
2022-12-24T18:58:10.120Z,10.30
2022-12-24T19:00:38.178Z,10.30
2022-12-24T19:03:06.244Z,10.30
2022-12-24T19:05:35.829Z,10.30
2022-12-24T19:08:22.230Z,10.30
2022-12-24T19:10:54.333Z,10.30
2022-12-24T19:13:24.062Z,10.20
2022-12-24T19:15:52.254Z,10.20
2022-12-24T19:18:20.345Z,10.20
2022-12-24T19:20:49.707Z,10.20
2022-12-24T19:23:17.817Z,10.30
2022-12-24T19:25:45.851Z,10.20
2022-12-24T19:28:13.868Z,10.20
2022-12-24T19:30:43.321Z,10.20
2022-12-24T19:33:11.609Z,10.20
2022-12-24T19:35:39.684Z,10.20
2022-12-24T19:38:09.106Z,10.20
2022-12-24T19:40:40.647Z,10.20
2022-12-24T19:43:08.666Z,10.20
2022-12-24T19:45:36.691Z,10.10
2022-12-24T19:48:05.139Z,10.10
2022-12-24T19:50:35.836Z,10.10
2022-12-24T19:53:04.354Z,10.20
2022-12-24T19:55:33.755Z,10.20
2022-12-24T19:58:01.747Z,10.10
2022-12-24T20:00:29.657Z,10.20
2022-12-24T20:03:07.074Z,10.20
2022-12-24T20:05:46.695Z,10.20
2022-12-24T20:08:17.472Z,10.20
2022-12-24T20:10:49.800Z,10.20
2022-12-24T20:13:21.795Z,10.20
2022-12-24T20:15:49.944Z,10.30
2022-12-24T20:18:18.042Z,10.30
2022-12-24T20:20:46.612Z,10.30
2022-12-24T20:23:14.617Z,10.30
2022-12-24T20:25:47.989Z,10.40
2022-12-24T20:28:20.440Z,10.40
2022-12-24T20:30:48.387Z,10.50
2022-12-24T20:33:20.195Z,10.50
2022-12-24T20:35:48.532Z,10.50
2022-12-24T20:38:16.515Z,10.50
2022-12-24T20:40:45.405Z,10.50
2022-12-24T20:43:20.983Z,10.50
2022-12-24T20:45:57.915Z,10.50
2022-12-24T20:48:26.330Z,10.50
2022-12-24T20:50:54.401Z,10.40
2022-12-24T20:53:28.969Z,10.30
2022-12-24T20:55:58.607Z,10.30
2022-12-24T20:58:26.560Z,10.30
2022-12-24T21:00:56.137Z,10.20
2022-12-24T21:03:26.158Z,10.20
2022-12-24T21:05:57.153Z,10.10
2022-12-24T21:08:25.613Z,10.10
2022-12-24T21:11:14.096Z,10.00
2022-12-24T21:13:41.525Z,10.10
2022-12-24T21:16:10.998Z,10.00
2022-12-24T21:18:41.494Z,10.00
2022-12-24T21:21:11.646Z,10.00
2022-12-24T21:23:39.702Z,10.10
2022-12-24T21:26:07.804Z,10.10
2022-12-24T21:28:35.814Z,10.10
2022-12-24T21:31:08.578Z,10.20
2022-12-24T21:33:38.713Z,10.20
2022-12-24T21:36:07.545Z,10.20
2022-12-24T21:38:36.490Z,10.20
2022-12-24T21:41:06.316Z,10.20
2022-12-24T21:43:36.284Z,10.20
2022-12-24T21:46:08.010Z,10.20
2022-12-24T21:48:55.759Z,10.10
2022-12-24T21:51:24.921Z,10.10
2022-12-24T21:54:15.082Z,9.90
2022-12-24T21:57:00.761Z,9.90
2022-12-24T21:59:28.982Z,9.90
2022-12-24T22:01:58.116Z,9.80
2022-12-24T22:04:27.975Z,9.80
2022-12-24T22:07:13.436Z,9.80
2022-12-24T22:09:59.405Z,9.80
2022-12-24T22:12:30.321Z,9.70
2022-12-24T22:14:58.540Z,9.70
2022-12-24T22:17:27.110Z,9.70
2022-12-24T22:19:57.058Z,9.70
2022-12-24T22:22:25.614Z,9.60
2022-12-24T22:24:53.728Z,9.60
2022-12-24T22:27:21.889Z,9.60
2022-12-24T22:29:50.061Z,9.60
2022-12-24T22:32:18.300Z,9.60
2022-12-24T22:34:50.666Z,9.70
2022-12-24T22:37:20.767Z,9.70
2022-12-24T22:39:49.069Z,9.70
2022-12-24T22:42:17.292Z,9.70
2022-12-24T22:44:45.348Z,9.70
2022-12-24T22:47:13.481Z,9.60
2022-12-24T22:49:41.658Z,9.70
2022-12-24T22:52:09.686Z,9.70
2022-12-24T22:54:39.847Z,9.70
2022-12-24T22:57:08.137Z,9.70
2022-12-24T22:59:36.274Z,9.70
2022-12-24T23:02:06.032Z,9.70
2022-12-24T23:04:36.668Z,9.70
2022-12-24T23:07:05.258Z,9.60
2022-12-24T23:09:33.888Z,9.60
2022-12-24T23:12:03.185Z,9.60
2022-12-24T23:14:48.623Z,9.60
2022-12-24T23:17:16.600Z,9.60
2022-12-24T23:19:44.511Z,9.60
2022-12-24T23:22:12.855Z,9.60
2022-12-24T23:24:41.334Z,9.60
2022-12-24T23:27:10.729Z,9.70
2022-12-24T23:29:38.654Z,9.70
2022-12-24T23:32:06.748Z,9.70
2022-12-24T23:34:34.679Z,9.80
2022-12-24T23:37:02.520Z,9.80
2022-12-24T23:39:34.172Z,9.80
2022-12-24T23:42:02.264Z,9.90
2022-12-24T23:44:32.811Z,9.90
2022-12-24T23:47:01.008Z,10.00
2022-12-24T23:49:29.096Z,9.90
2022-12-24T23:51:57.057Z,9.90
2022-12-24T23:54:25.002Z,10.00
2022-12-24T23:56:52.915Z,10.00
2022-12-24T23:59:20.807Z,9.90
